sensor_id;sensor_type;location;lat;lon;timestamp;temperature;humidity
10447;DHT22;5271;44.422;26.092;2023-05-10T00:02:18;17.40;95.40
10447;DHT22;5271;44.422;26.092;2023-05-10T00:04:45;17.30;95.30
10447;DHT22;5271;44.422;26.092;2023-05-10T00:07:13;17.30;95.20
10447;DHT22;5271;44.422;26.092;2023-05-10T00:09:42;17.20;95.30
10447;DHT22;5271;44.422;26.092;2023-05-10T00:12:09;17.20;95.20
10447;DHT22;5271;44.422;26.092;2023-05-10T00:14:36;17.10;95.30
10447;DHT22;5271;44.422;26.092;2023-05-10T00:17:03;17.00;95.60
10447;DHT22;5271;44.422;26.092;2023-05-10T00:19:29;16.90;95.80
10447;DHT22;5271;44.422;26.092;2023-05-10T00:21:56;16.70;96.00
10447;DHT22;5271;44.422;26.092;2023-05-10T00:24:24;16.70;96.30
10447;DHT22;5271;44.422;26.092;2023-05-10T00:26:51;16.60;96.60
10447;DHT22;5271;44.422;26.092;2023-05-10T00:29:18;16.60;96.90
10447;DHT22;5271;44.422;26.092;2023-05-10T00:31:45;16.60;96.80
10447;DHT22;5271;44.422;26.092;2023-05-10T00:34:12;16.60;96.90
10447;DHT22;5271;44.422;26.092;2023-05-10T00:36:39;16.50;97.00
10447;DHT22;5271;44.422;26.092;2023-05-10T00:39:06;16.40;97.10
10447;DHT22;5271;44.422;26.092;2023-05-10T00:41:34;16.40;97.20
10447;DHT22;5271;44.422;26.092;2023-05-10T00:44:01;16.30;97.30
10447;DHT22;5271;44.422;26.092;2023-05-10T00:46:28;16.30;97.10
10447;DHT22;5271;44.422;26.092;2023-05-10T00:48:55;16.30;97.20
10447;DHT22;5271;44.422;26.092;2023-05-10T00:51:22;16.30;97.30
10447;DHT22;5271;44.422;26.092;2023-05-10T00:53:49;16.40;97.30
10447;DHT22;5271;44.422;26.092;2023-05-10T00:56:17;16.40;97.40
10447;DHT22;5271;44.422;26.092;2023-05-10T00:58:45;16.40;97.30
10447;DHT22;5271;44.422;26.092;2023-05-10T01:01:12;16.40;97.20
10447;DHT22;5271;44.422;26.092;2023-05-10T01:03:40;16.50;97.20
10447;DHT22;5271;44.422;26.092;2023-05-10T01:06:07;16.50;97.10
10447;DHT22;5271;44.422;26.092;2023-05-10T01:08:35;16.50;96.90
10447;DHT22;5271;44.422;26.092;2023-05-10T01:11:02;16.70;96.90
10447;DHT22;5271;44.422;26.092;2023-05-10T01:13:32;16.80;96.90
10447;DHT22;5271;44.422;26.092;2023-05-10T01:16:01;16.80;96.60
10447;DHT22;5271;44.422;26.092;2023-05-10T01:18:29;16.80;96.80
10447;DHT22;5271;44.422;26.092;2023-05-10T01:21:07;16.80;96.70
10447;DHT22;5271;44.422;26.092;2023-05-10T01:23:53;16.80;96.80
10447;DHT22;5271;44.422;26.092;2023-05-10T01:26:52;16.90;96.70
10447;DHT22;5271;44.422;26.092;2023-05-10T01:29:47;17.00;96.40
10447;DHT22;5271;44.422;26.092;2023-05-10T01:32:26;17.00;96.30
10447;DHT22;5271;44.422;26.092;2023-05-10T01:35:00;17.20;96.50
10447;DHT22;5271;44.422;26.092;2023-05-10T01:37:33;17.20;96.20
10447;DHT22;5271;44.422;26.092;2023-05-10T01:40:10;17.30;96.20
10447;DHT22;5271;44.422;26.092;2023-05-10T01:42:44;17.30;96.00
10447;DHT22;5271;44.422;26.092;2023-05-10T01:45:18;17.20;96.10
10447;DHT22;5271;44.422;26.092;2023-05-10T01:47:52;17.10;96.10
10447;DHT22;5271;44.422;26.092;2023-05-10T01:50:24;17.10;96.30
10447;DHT22;5271;44.422;26.092;2023-05-10T01:52:56;17.10;96.10
10447;DHT22;5271;44.422;26.092;2023-05-10T01:55:27;17.20;95.90
10447;DHT22;5271;44.422;26.092;2023-05-10T01:58:02;17.10;96.00
10447;DHT22;5271;44.422;26.092;2023-05-10T02:00:29;17.00;96.20
10447;DHT22;5271;44.422;26.092;2023-05-10T02:03:00;17.00;96.20
10447;DHT22;5271;44.422;26.092;2023-05-10T02:05:29;16.90;96.30
10447;DHT22;5271;44.422;26.092;2023-05-10T02:07:58;16.90;96.30
10447;DHT22;5271;44.422;26.092;2023-05-10T02:10:26;16.80;96.30
10447;DHT22;5271;44.422;26.092;2023-05-10T02:12:54;16.80;96.50
10447;DHT22;5271;44.422;26.092;2023-05-10T02:15:23;16.70;96.50
10447;DHT22;5271;44.422;26.092;2023-05-10T02:17:53;16.70;96.70
10447;DHT22;5271;44.422;26.092;2023-05-10T02:20:23;16.70;96.70
10447;DHT22;5271;44.422;26.092;2023-05-10T02:22:53;16.70;96.80
10447;DHT22;5271;44.422;26.092;2023-05-10T02:25:21;16.80;96.80
10447;DHT22;5271;44.422;26.092;2023-05-10T02:27:49;16.90;96.70
10447;DHT22;5271;44.422;26.092;2023-05-10T02:30:16;16.90;96.60
10447;DHT22;5271;44.422;26.092;2023-05-10T02:32:45;16.90;96.60
10447;DHT22;5271;44.422;26.092;2023-05-10T02:35:13;16.90;96.70
10447;DHT22;5271;44.422;26.092;2023-05-10T02:37:42;16.80;96.70
10447;DHT22;5271;44.422;26.092;2023-05-10T02:40:10;16.90;96.70
10447;DHT22;5271;44.422;26.092;2023-05-10T02:42:38;16.90;97.00
10447;DHT22;5271;44.422;26.092;2023-05-10T02:45:11;17.00;96.70
10447;DHT22;5271;44.422;26.092;2023-05-10T02:47:39;17.00;96.50
10447;DHT22;5271;44.422;26.092;2023-05-10T02:50:06;17.00;96.50
10447;DHT22;5271;44.422;26.092;2023-05-10T02:52:39;16.90;96.40
10447;DHT22;5271;44.422;26.092;2023-05-10T02:55:09;16.90;96.50
10447;DHT22;5271;44.422;26.092;2023-05-10T02:57:41;16.90;96.50
10447;DHT22;5271;44.422;26.092;2023-05-10T03:00:10;16.90;96.50
10447;DHT22;5271;44.422;26.092;2023-05-10T03:02:37;16.90;96.50
10447;DHT22;5271;44.422;26.092;2023-05-10T03:05:04;16.90;96.40
10447;DHT22;5271;44.422;26.092;2023-05-10T03:07:32;16.90;96.70
10447;DHT22;5271;44.422;26.092;2023-05-10T03:10:00;17.00;96.50
10447;DHT22;5271;44.422;26.092;2023-05-10T03:12:35;17.00;96.50
10447;DHT22;5271;44.422;26.092;2023-05-10T03:15:11;17.00;96.30
10447;DHT22;5271;44.422;26.092;2023-05-10T03:17:45;17.10;96.30
10447;DHT22;5271;44.422;26.092;2023-05-10T03:20:21;17.10;96.20
10447;DHT22;5271;44.422;26.092;2023-05-10T03:22:52;17.20;96.00
10447;DHT22;5271;44.422;26.092;2023-05-10T03:25:21;17.20;95.60
10447;DHT22;5271;44.422;26.092;2023-05-10T03:27:52;17.20;95.50
10447;DHT22;5271;44.422;26.092;2023-05-10T03:30:19;17.10;95.60
10447;DHT22;5271;44.422;26.092;2023-05-10T03:32:46;17.00;95.90
10447;DHT22;5271;44.422;26.092;2023-05-10T03:35:13;16.80;96.10
10447;DHT22;5271;44.422;26.092;2023-05-10T03:37:40;16.70;96.10
10447;DHT22;5271;44.422;26.092;2023-05-10T03:40:08;16.60;96.30
10447;DHT22;5271;44.422;26.092;2023-05-10T03:42:35;16.50;96.20
10447;DHT22;5271;44.422;26.092;2023-05-10T03:45:04;16.30;96.20
10447;DHT22;5271;44.422;26.092;2023-05-10T03:47:31;16.30;96.20
10447;DHT22;5271;44.422;26.092;2023-05-10T03:49:58;16.30;96.40
10447;DHT22;5271;44.422;26.092;2023-05-10T03:52:25;16.30;96.20
10447;DHT22;5271;44.422;26.092;2023-05-10T03:54:51;16.30;96.20
10447;DHT22;5271;44.422;26.092;2023-05-10T03:57:18;16.20;96.20
10447;DHT22;5271;44.422;26.092;2023-05-10T03:59:45;16.20;96.40
10447;DHT22;5271;44.422;26.092;2023-05-10T04:02:13;16.20;95.90
10447;DHT22;5271;44.422;26.092;2023-05-10T04:04:40;16.10;96.00
10447;DHT22;5271;44.422;26.092;2023-05-10T04:07:07;16.00;95.70
10447;DHT22;5271;44.422;26.092;2023-05-10T04:09:35;16.00;95.10
10447;DHT22;5271;44.422;26.092;2023-05-10T04:12:02;15.90;95.30
10447;DHT22;5271;44.422;26.092;2023-05-10T04:14:29;15.80;95.40
10447;DHT22;5271;44.422;26.092;2023-05-10T04:16:56;15.80;95.60
10447;DHT22;5271;44.422;26.092;2023-05-10T04:19:28;15.80;95.70
10447;DHT22;5271;44.422;26.092;2023-05-10T04:21:55;15.80;95.50
10447;DHT22;5271;44.422;26.092;2023-05-10T04:24:22;15.90;95.40
10447;DHT22;5271;44.422;26.092;2023-05-10T04:26:49;15.90;95.10
10447;DHT22;5271;44.422;26.092;2023-05-10T04:29:15;15.90;95.00
10447;DHT22;5271;44.422;26.092;2023-05-10T04:31:42;15.90;94.80
10447;DHT22;5271;44.422;26.092;2023-05-10T04:34:09;15.70;94.90
10447;DHT22;5271;44.422;26.092;2023-05-10T04:36:37;15.60;95.00
10447;DHT22;5271;44.422;26.092;2023-05-10T04:39:04;15.60;95.00
10447;DHT22;5271;44.422;26.092;2023-05-10T04:41:31;15.50;94.70
10447;DHT22;5271;44.422;26.092;2023-05-10T04:43:58;15.40;94.70
10447;DHT22;5271;44.422;26.092;2023-05-10T04:46:25;15.40;95.00
10447;DHT22;5271;44.422;26.092;2023-05-10T04:48:51;15.40;94.40
10447;DHT22;5271;44.422;26.092;2023-05-10T04:51:18;15.40;94.50
10447;DHT22;5271;44.422;26.092;2023-05-10T04:53:47;15.40;94.00
10447;DHT22;5271;44.422;26.092;2023-05-10T04:56:14;15.40;93.50
10447;DHT22;5271;44.422;26.092;2023-05-10T04:58:41;15.40;93.70
10447;DHT22;5271;44.422;26.092;2023-05-10T05:01:08;15.40;93.80
10447;DHT22;5271;44.422;26.092;2023-05-10T05:03:36;15.50;93.40
10447;DHT22;5271;44.422;26.092;2023-05-10T05:06:03;15.50;92.80
10447;DHT22;5271;44.422;26.092;2023-05-10T05:08:30;15.40;92.80
10447;DHT22;5271;44.422;26.092;2023-05-10T05:10:58;15.40;92.80
10447;DHT22;5271;44.422;26.092;2023-05-10T05:13:25;15.40;93.00
10447;DHT22;5271;44.422;26.092;2023-05-10T05:15:52;15.40;92.60
10447;DHT22;5271;44.422;26.092;2023-05-10T05:18:20;15.40;92.50
10447;DHT22;5271;44.422;26.092;2023-05-10T05:20:47;15.40;92.80
10447;DHT22;5271;44.422;26.092;2023-05-10T05:23:13;15.40;92.60
10447;DHT22;5271;44.422;26.092;2023-05-10T05:25:40;15.40;92.50
10447;DHT22;5271;44.422;26.092;2023-05-10T05:28:08;15.40;92.20
10447;DHT22;5271;44.422;26.092;2023-05-10T05:30:35;15.40;91.90
10447;DHT22;5271;44.422;26.092;2023-05-10T05:33:02;15.30;92.10
10447;DHT22;5271;44.422;26.092;2023-05-10T05:35:29;15.30;92.50
10447;DHT22;5271;44.422;26.092;2023-05-10T05:37:56;15.40;92.20
10447;DHT22;5271;44.422;26.092;2023-05-10T05:40:23;15.40;92.40
10447;DHT22;5271;44.422;26.092;2023-05-10T05:42:50;15.40;92.20
10447;DHT22;5271;44.422;26.092;2023-05-10T05:45:18;15.30;92.10
10447;DHT22;5271;44.422;26.092;2023-05-10T05:47:45;15.30;92.50
10447;DHT22;5271;44.422;26.092;2023-05-10T05:50:12;15.30;92.50
10447;DHT22;5271;44.422;26.092;2023-05-10T05:52:39;15.50;92.60
10447;DHT22;5271;44.422;26.092;2023-05-10T05:55:07;15.60;92.40
10447;DHT22;5271;44.422;26.092;2023-05-10T05:57:34;15.70;92.10
10447;DHT22;5271;44.422;26.092;2023-05-10T06:00:00;15.70;91.90
10447;DHT22;5271;44.422;26.092;2023-05-10T06:02:29;15.70;92.20
10447;DHT22;5271;44.422;26.092;2023-05-10T06:04:56;15.60;92.30
10447;DHT22;5271;44.422;26.092;2023-05-10T06:07:23;15.60;92.20
10447;DHT22;5271;44.422;26.092;2023-05-10T06:09:50;15.60;92.20
10447;DHT22;5271;44.422;26.092;2023-05-10T06:12:17;15.60;92.30
10447;DHT22;5271;44.422;26.092;2023-05-10T06:14:44;15.60;92.20
10447;DHT22;5271;44.422;26.092;2023-05-10T06:17:11;15.60;92.10
10447;DHT22;5271;44.422;26.092;2023-05-10T06:19:39;15.60;92.40
10447;DHT22;5271;44.422;26.092;2023-05-10T06:22:06;15.70;92.20
10447;DHT22;5271;44.422;26.092;2023-05-10T06:24:33;15.70;92.50
10447;DHT22;5271;44.422;26.092;2023-05-10T06:26:59;15.80;92.00
10447;DHT22;5271;44.422;26.092;2023-05-10T06:29:27;15.90;91.80
10447;DHT22;5271;44.422;26.092;2023-05-10T06:31:54;15.90;91.70
10447;DHT22;5271;44.422;26.092;2023-05-10T06:34:21;15.90;91.70
10447;DHT22;5271;44.422;26.092;2023-05-10T06:36:49;16.10;91.30
10447;DHT22;5271;44.422;26.092;2023-05-10T06:39:16;16.10;91.50
10447;DHT22;5271;44.422;26.092;2023-05-10T06:41:42;16.00;91.10
10447;DHT22;5271;44.422;26.092;2023-05-10T06:44:09;16.00;91.40
10447;DHT22;5271;44.422;26.092;2023-05-10T06:46:36;16.00;91.40
10447;DHT22;5271;44.422;26.092;2023-05-10T06:49:03;16.00;91.40
10447;DHT22;5271;44.422;26.092;2023-05-10T06:51:30;15.90;91.10
10447;DHT22;5271;44.422;26.092;2023-05-10T06:53:59;15.90;91.00
10447;DHT22;5271;44.422;26.092;2023-05-10T06:56:26;15.80;91.10
10447;DHT22;5271;44.422;26.092;2023-05-10T06:58:53;15.70;91.40
10447;DHT22;5271;44.422;26.092;2023-05-10T07:01:20;15.80;91.50
10447;DHT22;5271;44.422;26.092;2023-05-10T07:03:47;16.00;91.20
10447;DHT22;5271;44.422;26.092;2023-05-10T07:06:14;16.10;91.00
10447;DHT22;5271;44.422;26.092;2023-05-10T07:08:40;16.10;91.00
10447;DHT22;5271;44.422;26.092;2023-05-10T07:11:09;16.10;90.70
10447;DHT22;5271;44.422;26.092;2023-05-10T07:13:36;16.10;90.90
10447;DHT22;5271;44.422;26.092;2023-05-10T07:16:04;16.10;91.20
10447;DHT22;5271;44.422;26.092;2023-05-10T07:18:32;16.10;91.00
10447;DHT22;5271;44.422;26.092;2023-05-10T07:20:59;16.10;90.80
10447;DHT22;5271;44.422;26.092;2023-05-10T07:23:26;16.10;90.70
10447;DHT22;5271;44.422;26.092;2023-05-10T07:25:52;16.10;90.60
10447;DHT22;5271;44.422;26.092;2023-05-10T07:28:22;16.10;90.70
10447;DHT22;5271;44.422;26.092;2023-05-10T07:30:48;16.10;90.90
10447;DHT22;5271;44.422;26.092;2023-05-10T07:33:15;16.20;90.80
10447;DHT22;5271;44.422;26.092;2023-05-10T07:35:43;16.20;90.70
10447;DHT22;5271;44.422;26.092;2023-05-10T07:38:10;16.30;90.40
10447;DHT22;5271;44.422;26.092;2023-05-10T07:40:37;16.30;90.40
10447;DHT22;5271;44.422;26.092;2023-05-10T07:43:04;16.40;90.40
10447;DHT22;5271;44.422;26.092;2023-05-10T07:45:33;16.40;90.50
10447;DHT22;5271;44.422;26.092;2023-05-10T07:48:00;16.50;90.30
10447;DHT22;5271;44.422;26.092;2023-05-10T07:50:27;16.50;90.00
10447;DHT22;5271;44.422;26.092;2023-05-10T07:52:54;16.70;90.00
10447;DHT22;5271;44.422;26.092;2023-05-10T07:55:21;16.80;90.00
10447;DHT22;5271;44.422;26.092;2023-05-10T07:57:48;17.00;89.50
10447;DHT22;5271;44.422;26.092;2023-05-10T08:00:18;17.20;89.20
10447;DHT22;5271;44.422;26.092;2023-05-10T08:02:46;17.10;88.10
10447;DHT22;5271;44.422;26.092;2023-05-10T08:05:14;16.90;87.10
10447;DHT22;5271;44.422;26.092;2023-05-10T08:07:41;16.70;88.10
10447;DHT22;5271;44.422;26.092;2023-05-10T08:10:08;16.60;88.60
10447;DHT22;5271;44.422;26.092;2023-05-10T08:12:36;16.50;89.20
10447;DHT22;5271;44.422;26.092;2023-05-10T08:15:05;16.50;89.30
10447;DHT22;5271;44.422;26.092;2023-05-10T08:17:32;16.40;90.00
10447;DHT22;5271;44.422;26.092;2023-05-10T08:20:01;16.30;89.80
10447;DHT22;5271;44.422;26.092;2023-05-10T08:22:28;16.30;90.10
10447;DHT22;5271;44.422;26.092;2023-05-10T08:24:54;16.20;90.10
10447;DHT22;5271;44.422;26.092;2023-05-10T08:27:21;16.20;90.20
10447;DHT22;5271;44.422;26.092;2023-05-10T08:29:48;16.20;90.40
10447;DHT22;5271;44.422;26.092;2023-05-10T08:32:15;16.20;90.20
10447;DHT22;5271;44.422;26.092;2023-05-10T08:34:42;16.20;90.10
10447;DHT22;5271;44.422;26.092;2023-05-10T08:37:10;16.20;90.10
10447;DHT22;5271;44.422;26.092;2023-05-10T08:39:38;16.20;90.30
10447;DHT22;5271;44.422;26.092;2023-05-10T08:42:05;16.20;90.50
10447;DHT22;5271;44.422;26.092;2023-05-10T08:44:35;16.30;90.50
10447;DHT22;5271;44.422;26.092;2023-05-10T08:47:05;16.40;90.40
10447;DHT22;5271;44.422;26.092;2023-05-10T08:49:32;16.40;90.30
10447;DHT22;5271;44.422;26.092;2023-05-10T08:52:02;16.40;90.10
10447;DHT22;5271;44.422;26.092;2023-05-10T08:54:33;16.40;88.90
10447;DHT22;5271;44.422;26.092;2023-05-10T08:57:00;16.40;88.90
10447;DHT22;5271;44.422;26.092;2023-05-10T08:59:27;16.40;88.30
10447;DHT22;5271;44.422;26.092;2023-05-10T09:01:57;16.40;88.10
10447;DHT22;5271;44.422;26.092;2023-05-10T09:04:24;16.40;87.60
10447;DHT22;5271;44.422;26.092;2023-05-10T09:06:51;16.30;87.50
10447;DHT22;5271;44.422;26.092;2023-05-10T09:09:18;16.30;87.90
10447;DHT22;5271;44.422;26.092;2023-05-10T09:11:47;16.40;88.50
10447;DHT22;5271;44.422;26.092;2023-05-10T09:14:15;16.50;88.40
10447;DHT22;5271;44.422;26.092;2023-05-10T09:16:42;16.50;87.50
10447;DHT22;5271;44.422;26.092;2023-05-10T09:19:09;16.40;87.20
10447;DHT22;5271;44.422;26.092;2023-05-10T09:21:37;16.30;87.50
10447;DHT22;5271;44.422;26.092;2023-05-10T09:24:05;16.30;87.90
10447;DHT22;5271;44.422;26.092;2023-05-10T09:26:32;16.20;87.70
10447;DHT22;5271;44.422;26.092;2023-05-10T09:29:02;16.20;88.00
10447;DHT22;5271;44.422;26.092;2023-05-10T09:31:46;16.30;88.40
10447;DHT22;5271;44.422;26.092;2023-05-10T09:34:17;16.30;88.10
10447;DHT22;5271;44.422;26.092;2023-05-10T09:36:52;16.30;88.40
10447;DHT22;5271;44.422;26.092;2023-05-10T09:39:19;16.40;88.10
10447;DHT22;5271;44.422;26.092;2023-05-10T09:41:47;16.50;88.10
10447;DHT22;5271;44.422;26.092;2023-05-10T09:44:18;16.60;87.70
10447;DHT22;5271;44.422;26.092;2023-05-10T09:46:49;16.70;86.30
10447;DHT22;5271;44.422;26.092;2023-05-10T09:49:18;16.80;85.50
10447;DHT22;5271;44.422;26.092;2023-05-10T09:51:45;17.00;85.80
10447;DHT22;5271;44.422;26.092;2023-05-10T09:54:13;17.20;85.00
10447;DHT22;5271;44.422;26.092;2023-05-10T09:56:40;17.30;83.80
10447;DHT22;5271;44.422;26.092;2023-05-10T09:59:08;17.30;82.60
10447;DHT22;5271;44.422;26.092;2023-05-10T10:01:37;17.30;83.30
10447;DHT22;5271;44.422;26.092;2023-05-10T10:04:05;17.30;82.00
10447;DHT22;5271;44.422;26.092;2023-05-10T10:06:36;17.10;82.00
10447;DHT22;5271;44.422;26.092;2023-05-10T10:09:04;17.00;81.80
10447;DHT22;5271;44.422;26.092;2023-05-10T10:11:31;17.00;82.70
10447;DHT22;5271;44.422;26.092;2023-05-10T10:13:58;17.00;82.80
10447;DHT22;5271;44.422;26.092;2023-05-10T10:16:25;17.00;82.40
10447;DHT22;5271;44.422;26.092;2023-05-10T10:18:54;17.00;82.50
10447;DHT22;5271;44.422;26.092;2023-05-10T10:21:21;17.10;83.70
10447;DHT22;5271;44.422;26.092;2023-05-10T10:23:48;17.20;82.90
10447;DHT22;5271;44.422;26.092;2023-05-10T10:26:17;17.30;82.80
10447;DHT22;5271;44.422;26.092;2023-05-10T10:28:50;17.30;82.00
10447;DHT22;5271;44.422;26.092;2023-05-10T10:31:26;17.20;81.70
10447;DHT22;5271;44.422;26.092;2023-05-10T10:34:00;17.20;80.30
10447;DHT22;5271;44.422;26.092;2023-05-10T10:36:28;17.20;81.10
10447;DHT22;5271;44.422;26.092;2023-05-10T10:38:59;17.30;81.50
10447;DHT22;5271;44.422;26.092;2023-05-10T10:41:32;17.40;81.00
10447;DHT22;5271;44.422;26.092;2023-05-10T10:44:24;17.60;79.80
10447;DHT22;5271;44.422;26.092;2023-05-10T10:47:21;17.60;78.80
10447;DHT22;5271;44.422;26.092;2023-05-10T10:49:53;17.60;79.00
10447;DHT22;5271;44.422;26.092;2023-05-10T10:52:31;17.70;79.00
10447;DHT22;5271;44.422;26.092;2023-05-10T10:55:01;17.90;79.10
10447;DHT22;5271;44.422;26.092;2023-05-10T10:57:31;17.90;79.00
10447;DHT22;5271;44.422;26.092;2023-05-10T11:00:18;17.90;79.00
10447;DHT22;5271;44.422;26.092;2023-05-10T11:02:46;17.90;77.50
10447;DHT22;5271;44.422;26.092;2023-05-10T11:05:26;17.90;77.90
10447;DHT22;5271;44.422;26.092;2023-05-10T11:08:00;18.10;75.70
10447;DHT22;5271;44.422;26.092;2023-05-10T11:10:33;18.10;76.80
10447;DHT22;5271;44.422;26.092;2023-05-10T11:13:00;18.20;76.70
10447;DHT22;5271;44.422;26.092;2023-05-10T11:15:31;18.20;76.20
10447;DHT22;5271;44.422;26.092;2023-05-10T11:17:59;18.20;76.90
10447;DHT22;5271;44.422;26.092;2023-05-10T11:20:32;18.20;76.70
10447;DHT22;5271;44.422;26.092;2023-05-10T11:23:12;18.10;76.50
10447;DHT22;5271;44.422;26.092;2023-05-10T11:25:42;17.90;77.30
10447;DHT22;5271;44.422;26.092;2023-05-10T11:28:10;17.80;77.90
10447;DHT22;5271;44.422;26.092;2023-05-10T11:30:38;17.70;77.90
10447;DHT22;5271;44.422;26.092;2023-05-10T11:33:05;17.70;77.40
10447;DHT22;5271;44.422;26.092;2023-05-10T11:35:38;17.60;77.40
10447;DHT22;5271;44.422;26.092;2023-05-10T11:38:06;17.70;76.50
10447;DHT22;5271;44.422;26.092;2023-05-10T11:40:33;17.70;76.80
10447;DHT22;5271;44.422;26.092;2023-05-10T11:43:01;17.70;76.70
10447;DHT22;5271;44.422;26.092;2023-05-10T11:45:28;17.80;76.10
10447;DHT22;5271;44.422;26.092;2023-05-10T11:47:57;17.90;76.80
10447;DHT22;5271;44.422;26.092;2023-05-10T11:50:24;17.80;75.80
10447;DHT22;5271;44.422;26.092;2023-05-10T11:52:53;17.80;76.30
10447;DHT22;5271;44.422;26.092;2023-05-10T11:55:20;17.80;76.30
10447;DHT22;5271;44.422;26.092;2023-05-10T11:57:51;17.80;76.40
10447;DHT22;5271;44.422;26.092;2023-05-10T12:00:18;17.80;76.30
10447;DHT22;5271;44.422;26.092;2023-05-10T12:02:45;17.90;76.10
10447;DHT22;5271;44.422;26.092;2023-05-10T12:05:12;17.90;76.00
10447;DHT22;5271;44.422;26.092;2023-05-10T12:07:39;17.90;76.00
10447;DHT22;5271;44.422;26.092;2023-05-10T12:10:08;17.90;75.90
10447;DHT22;5271;44.422;26.092;2023-05-10T12:12:40;17.90;75.60
10447;DHT22;5271;44.422;26.092;2023-05-10T12:15:11;18.00;75.80
10447;DHT22;5271;44.422;26.092;2023-05-10T12:17:39;18.10;75.80
10447;DHT22;5271;44.422;26.092;2023-05-10T12:20:19;18.10;75.80
10447;DHT22;5271;44.422;26.092;2023-05-10T12:22:49;18.30;75.40
10447;DHT22;5271;44.422;26.092;2023-05-10T12:25:18;18.40;74.90
10447;DHT22;5271;44.422;26.092;2023-05-10T12:27:49;18.50;74.20
10447;DHT22;5271;44.422;26.092;2023-05-10T12:30:21;18.50;74.00
10447;DHT22;5271;44.422;26.092;2023-05-10T12:32:48;18.50;73.40
10447;DHT22;5271;44.422;26.092;2023-05-10T12:35:16;18.50;72.50
10447;DHT22;5271;44.422;26.092;2023-05-10T12:37:44;18.50;73.40
10447;DHT22;5271;44.422;26.092;2023-05-10T12:40:11;18.40;73.30
10447;DHT22;5271;44.422;26.092;2023-05-10T12:42:40;18.40;74.20
10447;DHT22;5271;44.422;26.092;2023-05-10T12:45:08;18.40;74.20
10447;DHT22;5271;44.422;26.092;2023-05-10T12:47:35;18.50;74.20
10447;DHT22;5271;44.422;26.092;2023-05-10T12:50:03;18.50;74.50
10447;DHT22;5271;44.422;26.092;2023-05-10T12:52:31;18.50;74.10
10447;DHT22;5271;44.422;26.092;2023-05-10T12:54:58;18.50;73.30
10447;DHT22;5271;44.422;26.092;2023-05-10T12:57:26;18.50;73.60
10447;DHT22;5271;44.422;26.092;2023-05-10T12:59:54;18.50;73.00
10447;DHT22;5271;44.422;26.092;2023-05-10T13:02:21;18.50;73.50
10447;DHT22;5271;44.422;26.092;2023-05-10T13:04:49;18.60;73.40
10447;DHT22;5271;44.422;26.092;2023-05-10T13:07:15;18.70;72.70
10447;DHT22;5271;44.422;26.092;2023-05-10T13:09:42;18.70;72.80
10447;DHT22;5271;44.422;26.092;2023-05-10T13:12:09;18.70;72.60
10447;DHT22;5271;44.422;26.092;2023-05-10T13:14:36;18.80;73.10
10447;DHT22;5271;44.422;26.092;2023-05-10T13:17:04;18.80;73.00
10447;DHT22;5271;44.422;26.092;2023-05-10T13:19:31;18.80;72.60
10447;DHT22;5271;44.422;26.092;2023-05-10T13:21:58;18.70;72.60
10447;DHT22;5271;44.422;26.092;2023-05-10T13:24:25;18.70;73.00
10447;DHT22;5271;44.422;26.092;2023-05-10T13:26:52;18.60;71.50
10447;DHT22;5271;44.422;26.092;2023-05-10T13:29:18;18.60;72.40
10447;DHT22;5271;44.422;26.092;2023-05-10T13:31:46;18.60;71.80
10447;DHT22;5271;44.422;26.092;2023-05-10T13:34:14;18.70;72.40
10447;DHT22;5271;44.422;26.092;2023-05-10T13:36:41;18.80;72.20
10447;DHT22;5271;44.422;26.092;2023-05-10T13:39:08;18.80;72.40
10447;DHT22;5271;44.422;26.092;2023-05-10T13:41:35;19.00;72.70
10447;DHT22;5271;44.422;26.092;2023-05-10T13:44:02;19.00;71.70
10447;DHT22;5271;44.422;26.092;2023-05-10T13:46:29;19.10;72.00
10447;DHT22;5271;44.422;26.092;2023-05-10T13:48:56;19.10;72.30
10447;DHT22;5271;44.422;26.092;2023-05-10T13:51:24;19.10;72.10
10447;DHT22;5271;44.422;26.092;2023-05-10T13:53:51;19.10;71.70
10447;DHT22;5271;44.422;26.092;2023-05-10T13:56:18;19.10;72.20
10447;DHT22;5271;44.422;26.092;2023-05-10T13:58:45;19.10;71.20
10447;DHT22;5271;44.422;26.092;2023-05-10T14:01:13;19.00;71.30
10447;DHT22;5271;44.422;26.092;2023-05-10T14:03:39;19.00;71.70
10447;DHT22;5271;44.422;26.092;2023-05-10T14:06:07;19.00;71.90
10447;DHT22;5271;44.422;26.092;2023-05-10T14:08:35;19.00;71.70
10447;DHT22;5271;44.422;26.092;2023-05-10T14:11:02;19.00;72.00
10447;DHT22;5271;44.422;26.092;2023-05-10T14:13:29;19.00;72.40
10447;DHT22;5271;44.422;26.092;2023-05-10T14:15:56;19.00;72.50
10447;DHT22;5271;44.422;26.092;2023-05-10T14:18:24;19.00;72.60
10447;DHT22;5271;44.422;26.092;2023-05-10T14:20:51;19.00;72.60
10447;DHT22;5271;44.422;26.092;2023-05-10T14:23:18;19.00;72.70
10447;DHT22;5271;44.422;26.092;2023-05-10T14:25:50;19.10;72.80
10447;DHT22;5271;44.422;26.092;2023-05-10T14:28:18;19.10;72.70
10447;DHT22;5271;44.422;26.092;2023-05-10T14:30:45;19.10;73.00
10447;DHT22;5271;44.422;26.092;2023-05-10T14:33:12;19.10;72.60
10447;DHT22;5271;44.422;26.092;2023-05-10T14:35:39;19.10;72.40
10447;DHT22;5271;44.422;26.092;2023-05-10T14:38:06;19.10;72.50
10447;DHT22;5271;44.422;26.092;2023-05-10T14:40:33;19.10;72.00
10447;DHT22;5271;44.422;26.092;2023-05-10T14:43:01;19.10;71.80
10447;DHT22;5271;44.422;26.092;2023-05-10T14:45:28;19.10;71.50
10447;DHT22;5271;44.422;26.092;2023-05-10T14:47:55;19.10;71.30
10447;DHT22;5271;44.422;26.092;2023-05-10T14:50:22;19.10;71.50
10447;DHT22;5271;44.422;26.092;2023-05-10T14:52:49;19.10;72.00
10447;DHT22;5271;44.422;26.092;2023-05-10T14:55:16;19.10;72.40
10447;DHT22;5271;44.422;26.092;2023-05-10T14:57:43;19.10;72.70
10447;DHT22;5271;44.422;26.092;2023-05-10T15:00:15;19.20;72.80
10447;DHT22;5271;44.422;26.092;2023-05-10T15:02:42;19.30;73.00
10447;DHT22;5271;44.422;26.092;2023-05-10T15:05:09;19.30;73.20
10447;DHT22;5271;44.422;26.092;2023-05-10T15:07:36;19.30;72.80
10447;DHT22;5271;44.422;26.092;2023-05-10T15:10:03;19.40;72.50
10447;DHT22;5271;44.422;26.092;2023-05-10T15:12:30;19.40;71.50
10447;DHT22;5271;44.422;26.092;2023-05-10T15:14:57;19.40;71.90
10447;DHT22;5271;44.422;26.092;2023-05-10T15:17:25;19.30;71.90
10447;DHT22;5271;44.422;26.092;2023-05-10T15:19:52;19.30;71.50
10447;DHT22;5271;44.422;26.092;2023-05-10T15:22:19;19.30;72.30
10447;DHT22;5271;44.422;26.092;2023-05-10T15:24:46;19.30;72.30
10447;DHT22;5271;44.422;26.092;2023-05-10T15:27:13;19.30;72.00
10447;DHT22;5271;44.422;26.092;2023-05-10T15:29:40;19.30;71.10
10447;DHT22;5271;44.422;26.092;2023-05-10T15:32:07;19.40;71.10
10447;DHT22;5271;44.422;26.092;2023-05-10T15:34:35;19.40;70.80
10447;DHT22;5271;44.422;26.092;2023-05-10T15:37:02;19.40;71.10
10447;DHT22;5271;44.422;26.092;2023-05-10T15:39:29;19.40;71.60